createdAt,value
2019-05-07T00:00:50.081Z,2.02
2019-05-07T00:03:22.032Z,1.98
2019-05-07T00:05:53.957Z,2.27
2019-05-07T00:08:23.748Z,2.17
2019-05-07T00:10:54.154Z,2.30
2019-05-07T00:13:25.353Z,1.80
2019-05-07T00:15:55.472Z,2.10
2019-05-07T00:18:25.604Z,2.27
2019-05-07T00:20:56.083Z,2.10
2019-05-07T00:23:26.433Z,2.00
2019-05-07T00:25:56.617Z,2.12
2019-05-07T00:28:26.809Z,2.12
2019-05-07T00:30:56.865Z,2.08
2019-05-07T00:33:26.923Z,1.80
2019-05-07T00:36:07.845Z,2.87
2019-05-07T00:38:39.528Z,1.98
2019-05-07T00:41:14.121Z,1.75
2019-05-07T00:43:45.950Z,1.75
2019-05-07T00:46:17.713Z,1.87
2019-05-07T00:48:47.708Z,1.95
2019-05-07T00:51:28.133Z,2.42
2019-05-07T00:53:58.549Z,1.85
2019-05-07T00:56:28.765Z,1.65
2019-05-07T00:58:59.289Z,1.60
2019-05-07T01:01:29.419Z,1.40
2019-05-07T01:03:59.550Z,1.87
2019-05-07T01:06:29.888Z,1.00
2019-05-07T01:09:00.009Z,1.00
2019-05-07T01:11:30.062Z,1.50
2019-05-07T01:14:00.112Z,1.17
2019-05-07T01:16:30.160Z,1.52
2019-05-07T01:19:01.894Z,1.57
2019-05-07T01:21:32.422Z,1.45
2019-05-07T01:24:03.408Z,2.00
2019-05-07T01:26:33.535Z,1.87
2019-05-07T01:29:03.674Z,1.55
2019-05-07T01:31:39.271Z,1.77
2019-05-07T01:34:22.942Z,1.60
2019-05-07T01:36:52.435Z,1.53
2019-05-07T01:39:23.146Z,1.30
2019-05-07T01:41:53.421Z,0.90
2019-05-07T01:44:23.792Z,1.70
2019-05-07T01:46:53.905Z,1.70
2019-05-07T01:49:24.197Z,2.00
2019-05-07T01:51:54.451Z,1.70
2019-05-07T01:54:24.453Z,1.55
2019-05-07T01:56:54.503Z,1.50
2019-05-07T01:59:24.523Z,1.50
2019-05-07T02:01:56.668Z,1.75
2019-05-07T02:04:40.206Z,1.40
2019-05-07T02:07:14.576Z,1.37
2019-05-07T02:09:49.300Z,1.60
2019-05-07T02:12:22.212Z,1.30
2019-05-07T02:14:53.025Z,1.47
2019-05-07T02:17:24.424Z,1.52
2019-05-07T02:19:54.483Z,1.52
2019-05-07T02:22:24.536Z,1.30
2019-05-07T02:24:54.595Z,1.35
2019-05-07T02:27:24.647Z,1.57
2019-05-07T02:29:54.700Z,1.30
2019-05-07T02:32:24.893Z,1.40
2019-05-07T02:34:54.956Z,1.40
2019-05-07T02:37:33.744Z,1.60
2019-05-07T02:42:44.318Z,1.57
2019-05-07T02:45:16.399Z,1.40
2019-05-07T02:47:46.530Z,1.22
2019-05-07T02:50:32.919Z,1.27
2019-05-07T02:53:22.882Z,1.52
2019-05-07T02:55:58.183Z,1.37
2019-05-07T02:58:28.229Z,1.12
2019-05-07T03:00:58.277Z,1.47
2019-05-07T03:03:28.431Z,1.30
2019-05-07T03:05:58.560Z,1.55
2019-05-07T03:08:28.679Z,1.30
2019-05-07T03:10:58.716Z,1.17
2019-05-07T03:13:28.845Z,1.47
2019-05-07T03:15:59.069Z,1.07
2019-05-07T03:18:29.299Z,1.12
2019-05-07T03:21:12.645Z,1.60
2019-05-07T03:23:46.084Z,1.27
2019-05-07T03:26:23.544Z,1.50
2019-05-07T03:28:55.316Z,1.15
2019-05-07T03:31:36.355Z,1.30
2019-05-07T03:34:07.645Z,1.27
2019-05-07T03:36:39.560Z,1.35
2019-05-07T03:39:09.653Z,1.40
2019-05-07T03:41:43.069Z,1.70
2019-05-07T03:44:33.853Z,1.20
2019-05-07T03:47:16.887Z,1.05
2019-05-07T03:49:47.438Z,1.32
2019-05-07T03:52:17.570Z,1.15
2019-05-07T03:54:47.698Z,1.40
2019-05-07T03:57:19.165Z,1.50
2019-05-07T03:59:49.222Z,1.92
2019-05-07T04:02:19.336Z,1.20
2019-05-07T04:04:49.320Z,1.67
2019-05-07T04:07:19.377Z,1.27
2019-05-07T04:09:49.421Z,1.35
2019-05-07T04:12:19.482Z,1.12
2019-05-07T04:14:49.593Z,1.40
2019-05-07T04:17:23.231Z,1.50
2019-05-07T04:19:53.225Z,1.22
2019-05-07T04:22:26.422Z,1.40
2019-05-07T04:24:59.521Z,1.30
2019-05-07T04:27:37.002Z,1.50
2019-05-07T04:30:08.302Z,1.30
2019-05-07T04:32:43.189Z,1.55
2019-05-07T04:35:13.220Z,1.40
2019-05-07T04:37:43.293Z,1.30
2019-05-07T04:40:13.598Z,1.67
2019-05-07T04:42:43.664Z,1.80
2019-05-07T04:45:14.290Z,1.47
2019-05-07T04:47:47.683Z,1.57
2019-05-07T04:50:36.781Z,1.45
2019-05-07T04:52:49.413Z,1.40
2019-05-07T04:55:22.714Z,1.77
2019-05-07T04:57:53.357Z,1.83
2019-05-07T05:00:23.938Z,1.30
2019-05-07T05:02:55.769Z,1.90
2019-05-07T05:05:26.260Z,1.75
2019-05-07T05:07:56.316Z,1.50
2019-05-07T05:10:26.502Z,1.62
2019-05-07T05:12:56.572Z,1.60
2019-05-07T05:15:27.685Z,1.55
2019-05-07T05:17:57.850Z,1.50
2019-05-07T05:20:42.236Z,1.47
2019-05-07T05:23:13.865Z,1.60
2019-05-07T05:25:45.564Z,2.75
2019-05-07T05:28:15.959Z,2.05
2019-05-07T05:30:50.293Z,1.40
2019-05-07T05:33:20.424Z,1.98
2019-05-07T05:35:52.410Z,1.75
2019-05-07T05:38:22.544Z,1.77
2019-05-07T05:40:52.569Z,1.87
2019-05-07T05:43:27.217Z,2.02
2019-05-07T05:45:58.852Z,2.05
2019-05-07T05:48:28.828Z,2.83
2019-05-07T05:51:03.394Z,1.35
2019-05-07T05:53:38.029Z,2.20
2019-05-07T05:56:12.743Z,1.92
2019-05-07T05:58:52.550Z,2.20
2019-05-07T06:01:42.504Z,2.10
2019-05-07T06:04:13.368Z,2.45
2019-05-07T06:07:11.323Z,2.65
2019-05-07T06:09:52.760Z,2.70
2019-05-07T06:12:42.798Z,2.45
2019-05-07T06:15:14.322Z,2.35
2019-05-07T06:17:48.951Z,2.87
2019-05-07T06:20:37.197Z,2.12
2019-05-07T06:23:18.089Z,2.47
2019-05-07T06:25:49.272Z,2.85
2019-05-07T06:28:22.164Z,3.75
2019-05-07T06:30:52.776Z,1.60
2019-05-07T06:33:24.430Z,2.00
2019-05-07T06:35:54.549Z,2.80
2019-05-07T06:38:26.164Z,2.70
2019-05-07T06:40:57.874Z,2.67
2019-05-07T06:43:29.567Z,2.83
2019-05-07T06:46:04.256Z,3.80
2019-05-07T06:48:42.038Z,2.95
2019-05-07T06:51:05.998Z,3.70
2019-05-07T06:53:36.188Z,2.52
2019-05-07T06:56:06.316Z,3.00
2019-05-07T06:58:47.329Z,2.90
2019-05-07T07:01:35.970Z,4.08
2019-05-07T07:04:13.896Z,3.40
2019-05-07T07:06:48.277Z,2.50
2019-05-07T07:09:29.285Z,3.30
2019-05-07T07:12:13.161Z,3.58
2019-05-07T07:17:13.022Z,2.58
2019-05-07T07:19:43.135Z,2.33
2019-05-07T07:22:13.260Z,2.72
2019-05-07T07:24:43.303Z,2.17
2019-05-07T07:27:13.448Z,2.75
2019-05-07T07:29:48.810Z,3.05
2019-05-07T07:32:23.402Z,2.55
2019-05-07T07:34:54.763Z,2.75
2019-05-07T07:37:26.359Z,3.02
2019-05-07T07:40:16.083Z,2.90
2019-05-07T07:42:46.268Z,2.90
2019-05-07T07:45:19.796Z,2.90
2019-05-07T07:50:19.194Z,3.12
2019-05-07T07:52:49.307Z,3.65
2019-05-07T07:55:22.267Z,3.10
2019-05-07T07:58:12.522Z,2.75
2019-05-07T08:00:53.341Z,1.80
2019-05-07T08:03:23.402Z,1.30
2019-05-07T08:05:53.393Z,1.20
2019-05-07T08:08:23.793Z,1.55
2019-05-07T08:10:53.985Z,1.65
2019-05-07T08:13:24.045Z,1.57
2019-05-07T08:15:54.173Z,1.47
2019-05-07T08:18:24.389Z,1.90
2019-05-07T08:20:54.512Z,1.98
2019-05-07T08:23:24.624Z,1.85
2019-05-07T08:25:54.717Z,1.70
2019-05-07T08:28:25.137Z,1.67
2019-05-07T08:31:13.468Z,1.87
2019-05-07T08:33:48.380Z,1.87
2019-05-07T08:36:19.028Z,2.33
2019-05-07T08:38:52.428Z,1.70
2019-05-07T08:41:22.836Z,1.50
2019-05-07T08:44:08.333Z,1.87
2019-05-07T08:46:44.055Z,1.85
2019-05-07T08:49:15.741Z,2.12
2019-05-07T08:51:47.440Z,2.40
2019-05-07T08:54:17.696Z,1.98
2019-05-07T08:56:47.784Z,2.20
2019-05-07T08:59:17.975Z,2.65
2019-05-07T09:01:47.971Z,1.80
2019-05-07T09:04:17.948Z,2.42
2019-05-07T09:06:48.082Z,2.45
2019-05-07T09:09:18.204Z,2.40
2019-05-07T09:11:48.338Z,2.22
2019-05-07T09:14:18.461Z,2.60
2019-05-07T09:16:48.579Z,2.60
2019-05-07T09:19:18.719Z,3.33
2019-05-07T09:21:49.238Z,2.60
2019-05-07T09:24:19.301Z,2.33
2019-05-07T09:26:53.749Z,2.98
2019-05-07T09:29:25.808Z,2.98
2019-05-07T09:32:00.250Z,2.87
2019-05-07T09:34:38.062Z,2.58
2019-05-07T09:37:18.513Z,3.02
2019-05-07T09:39:48.570Z,3.40
2019-05-07T09:42:18.690Z,3.33
2019-05-07T09:44:48.741Z,3.22
2019-05-07T09:47:18.861Z,2.98
2019-05-07T09:50:03.527Z,2.72
2019-05-07T09:52:22.879Z,2.92
2019-05-07T09:54:52.988Z,3.08
2019-05-07T09:57:30.871Z,3.15
2019-05-07T09:59:54.790Z,3.87
2019-05-07T10:02:25.077Z,2.90
2019-05-07T10:04:55.201Z,3.30
2019-05-07T10:07:25.254Z,3.17
2019-05-07T10:09:55.328Z,3.00
2019-05-07T10:12:39.123Z,3.40
2019-05-07T10:17:57.005Z,3.12
2019-05-07T10:20:27.567Z,3.62
2019-05-07T10:22:57.693Z,3.83
2019-05-07T10:25:29.394Z,3.45
2019-05-07T10:28:01.954Z,3.67
2019-05-07T10:30:32.613Z,4.50
2019-05-07T10:33:02.808Z,4.70
2019-05-07T10:35:33.713Z,4.60
2019-05-07T10:38:04.081Z,5.00
2019-05-07T10:40:34.525Z,4.05
2019-05-07T10:43:04.964Z,4.28
2019-05-07T10:45:52.124Z,4.33
2019-05-07T10:48:40.689Z,4.45
2019-05-07T10:51:10.856Z,4.67
2019-05-07T10:53:42.445Z,4.62
2019-05-07T10:56:12.740Z,5.22
2019-05-07T10:58:42.796Z,4.80
2019-05-07T11:01:14.862Z,5.53
2019-05-07T11:03:45.246Z,4.35
2019-05-07T11:06:15.430Z,4.37
2019-05-07T11:08:45.489Z,5.15
2019-05-07T11:11:15.604Z,3.95
2019-05-07T11:13:45.721Z,5.17
2019-05-07T11:16:17.408Z,5.55
2019-05-07T11:18:49.172Z,4.83
2019-05-07T11:21:22.209Z,4.20
2019-05-07T11:23:52.271Z,3.92
2019-05-07T11:26:22.386Z,3.72
2019-05-07T11:28:52.449Z,4.10
2019-05-07T11:31:22.507Z,3.90
2019-05-07T11:33:52.625Z,4.47
2019-05-07T11:36:22.682Z,4.28
2019-05-07T11:38:52.782Z,4.20
2019-05-07T11:41:24.564Z,4.45
2019-05-07T11:44:01.781Z,3.72
2019-05-07T11:46:52.610Z,4.65
2019-05-07T11:49:24.512Z,4.70
2019-05-07T11:51:58.982Z,4.70
2019-05-07T11:54:29.100Z,5.35
2019-05-07T11:56:59.158Z,4.90
2019-05-07T11:59:29.211Z,4.28
2019-05-07T12:02:00.982Z,3.72
2019-05-07T12:04:32.153Z,4.83
2019-05-07T12:07:02.635Z,3.62
2019-05-07T12:09:33.293Z,5.05
2019-05-07T12:12:03.681Z,4.30
2019-05-07T12:14:35.001Z,4.60
2019-05-07T12:17:06.781Z,4.47
2019-05-07T12:19:36.992Z,4.53
2019-05-07T12:22:07.650Z,5.00
2019-05-07T12:24:38.114Z,3.90
2019-05-07T12:27:08.304Z,4.75
2019-05-07T12:29:38.354Z,4.30
2019-05-07T12:32:29.565Z,3.72
2019-05-07T12:35:02.802Z,4.25
2019-05-07T12:37:32.927Z,4.90
2019-05-07T12:40:03.169Z,4.17
2019-05-07T12:42:33.267Z,3.77
2019-05-07T12:45:04.199Z,4.67
2019-05-07T12:47:34.672Z,3.90
2019-05-07T12:50:05.377Z,4.60
2019-05-07T12:52:49.317Z,4.35
2019-05-07T12:55:26.912Z,3.70
2019-05-07T12:57:57.024Z,4.35
2019-05-07T13:00:46.133Z,5.35
2019-05-07T13:03:21.813Z,4.28
2019-05-07T13:05:53.175Z,5.00
2019-05-07T13:08:23.569Z,4.60
2019-05-07T13:10:54.661Z,4.15
2019-05-07T13:13:24.726Z,4.22
2019-05-07T13:15:54.870Z,5.03
2019-05-07T13:18:24.988Z,4.97
2019-05-07T13:20:55.072Z,4.90
2019-05-07T13:23:25.281Z,6.33
2019-05-07T13:25:55.346Z,3.80
2019-05-07T13:28:25.425Z,5.37
2019-05-07T13:30:55.482Z,4.53
2019-05-07T13:33:26.912Z,4.10
2019-05-07T13:35:57.047Z,5.40
2019-05-07T13:38:29.405Z,4.05
2019-05-07T13:41:17.141Z,3.70
2019-05-07T13:43:58.914Z,4.30
2019-05-07T13:46:31.017Z,3.83
2019-05-07T13:49:02.094Z,4.10
2019-05-07T13:51:33.842Z,3.98
2019-05-07T13:54:04.294Z,4.92
2019-05-07T13:56:34.428Z,3.62
2019-05-07T13:59:05.031Z,5.05
2019-05-07T14:01:36.929Z,4.58
2019-05-07T14:04:07.357Z,5.70
2019-05-07T14:06:42.622Z,4.58
2019-05-07T14:09:15.252Z,4.12
2019-05-07T14:11:45.368Z,4.78
2019-05-07T14:14:18.196Z,4.55
2019-05-07T14:16:48.318Z,5.10
2019-05-07T14:19:18.453Z,4.40
2019-05-07T14:21:48.576Z,4.40
2019-05-07T14:24:18.625Z,4.50
2019-05-07T14:26:48.757Z,4.67
2019-05-07T14:29:18.742Z,5.05
2019-05-07T14:31:51.741Z,5.03
2019-05-07T14:34:24.048Z,3.58
2019-05-07T14:36:55.798Z,3.72
2019-05-07T14:39:25.840Z,4.20
2019-05-07T14:41:57.985Z,4.20
2019-05-07T14:44:46.165Z,4.72
2019-05-07T14:47:17.542Z,4.35
2019-05-07T14:49:48.366Z,4.45
2019-05-07T14:52:29.182Z,4.58
2019-05-07T14:54:50.233Z,5.53
2019-05-07T14:57:22.095Z,6.10
2019-05-07T14:59:52.493Z,4.85
2019-05-07T15:02:23.640Z,5.53
2019-05-07T15:04:53.940Z,4.72
2019-05-07T15:07:24.005Z,6.15
2019-05-07T15:09:54.133Z,5.75
2019-05-07T15:12:24.282Z,5.22
2019-05-07T15:14:54.745Z,5.17
2019-05-07T15:17:29.905Z,3.90
2019-05-07T15:20:00.033Z,3.72
2019-05-07T15:22:49.117Z,4.08
2019-05-07T15:25:12.167Z,3.62
2019-05-07T15:27:43.438Z,4.00
2019-05-07T15:30:14.131Z,3.83
2019-05-07T15:32:44.618Z,4.40
2019-05-07T15:35:14.737Z,4.40
2019-05-07T15:37:44.845Z,4.47
2019-05-07T15:40:14.974Z,3.70
2019-05-07T15:42:45.032Z,4.17
2019-05-07T15:45:15.332Z,3.85
2019-05-07T15:47:49.568Z,4.35
2019-05-07T15:50:19.547Z,5.72
2019-05-07T15:52:58.798Z,5.22
2019-05-07T15:55:29.076Z,4.15
2019-05-07T15:57:59.764Z,4.95
2019-05-07T16:00:33.423Z,5.03
2019-05-07T16:03:07.600Z,4.35
2019-05-07T16:05:37.665Z,4.33
2019-05-07T16:08:09.741Z,3.65
2019-05-07T16:10:39.810Z,4.47
2019-05-07T16:13:11.856Z,4.10
2019-05-07T16:15:43.266Z,5.58
2019-05-07T16:18:15.027Z,4.58
2019-05-07T16:20:45.097Z,5.45
2019-05-07T16:23:18.006Z,5.78
2019-05-07T16:25:46.764Z,4.90
2019-05-07T16:28:16.832Z,5.80
2019-05-07T16:30:46.886Z,5.67
2019-05-07T16:33:16.951Z,5.42
2019-05-07T16:35:47.518Z,6.37
2019-05-07T16:38:18.188Z,6.28
2019-05-07T16:40:48.405Z,6.42
2019-05-07T16:43:18.544Z,4.72
2019-05-07T16:45:48.665Z,5.92
2019-05-07T16:48:18.649Z,5.08
2019-05-07T16:50:48.772Z,7.37
2019-05-07T16:53:27.441Z,5.97
2019-05-07T16:55:52.237Z,4.70
2019-05-07T16:58:24.192Z,5.53
2019-05-07T17:01:09.309Z,6.60
2019-05-07T17:03:55.365Z,4.78
2019-05-07T17:06:25.529Z,5.15
2019-05-07T17:09:02.428Z,5.30
2019-05-07T17:11:33.527Z,4.72
2019-05-07T17:14:03.645Z,5.25
2019-05-07T17:16:34.073Z,6.45
2019-05-07T17:19:04.552Z,6.28
2019-05-07T17:21:37.801Z,6.72
2019-05-07T17:24:09.000Z,5.72
2019-05-07T17:26:39.131Z,5.25
2019-05-07T17:29:09.273Z,4.28
2019-05-07T17:31:39.805Z,4.60
2019-05-07T17:34:11.830Z,5.62
2019-05-07T17:36:42.373Z,5.15
2019-05-07T17:39:12.527Z,5.30
2019-05-07T17:41:43.089Z,5.20
2019-05-07T17:44:14.360Z,6.03
2019-05-07T17:46:46.134Z,4.97
2019-05-07T17:49:16.408Z,4.35
2019-05-07T17:51:46.539Z,4.30
2019-05-07T17:54:16.684Z,4.55
2019-05-07T17:56:46.806Z,3.70
2019-05-07T17:59:17.264Z,3.92
2019-05-07T18:01:50.201Z,3.75
2019-05-07T18:04:21.805Z,4.53
2019-05-07T18:06:52.346Z,4.35
2019-05-07T18:09:23.530Z,4.60
2019-05-07T18:11:53.720Z,5.42
2019-05-07T18:14:24.115Z,4.90
2019-05-07T18:16:58.665Z,5.35
2019-05-07T18:19:30.391Z,5.33
2019-05-07T18:22:02.504Z,4.45
2019-05-07T18:24:32.685Z,4.92
2019-05-07T18:27:04.458Z,4.67
2019-05-07T18:29:34.583Z,5.25
2019-05-07T18:32:06.283Z,5.25
2019-05-07T18:34:36.754Z,4.30
2019-05-07T18:37:07.975Z,4.40
2019-05-07T18:39:38.106Z,5.03
2019-05-07T18:42:08.223Z,5.20
2019-05-07T18:44:41.713Z,4.20
2019-05-07T18:47:12.943Z,5.05
2019-05-07T18:49:44.852Z,4.60
2019-05-07T18:52:15.275Z,4.80
2019-05-07T18:54:47.867Z,4.78
2019-05-07T18:57:17.085Z,5.08
2019-05-07T18:59:49.322Z,5.03
2019-05-07T19:02:19.512Z,4.90
2019-05-07T19:04:51.807Z,4.80
2019-05-07T19:07:23.071Z,5.20
2019-05-07T19:09:53.241Z,3.77
2019-05-07T19:12:24.978Z,4.60
2019-05-07T19:14:55.070Z,4.45
2019-05-07T19:17:25.715Z,4.20
2019-05-07T19:19:55.944Z,3.72
2019-05-07T19:22:26.064Z,4.10
2019-05-07T19:24:56.112Z,4.10
2019-05-07T19:27:26.230Z,4.20
2019-05-07T19:29:56.431Z,4.33
2019-05-07T19:32:26.490Z,3.98
2019-05-07T19:34:56.613Z,4.50
2019-05-07T19:37:26.958Z,4.40
2019-05-07T19:39:57.072Z,4.65
2019-05-07T19:42:27.138Z,3.92
2019-05-07T19:44:58.356Z,4.72
2019-05-07T19:47:28.482Z,4.05
2019-05-07T19:49:58.678Z,6.00
2019-05-07T19:52:28.861Z,4.40
2019-05-07T19:55:02.453Z,4.47
2019-05-07T19:57:33.289Z,4.42
2019-05-07T20:00:05.224Z,4.30
2019-05-07T20:05:12.119Z,4.20
2019-05-07T20:07:43.494Z,4.87
2019-05-07T20:10:16.337Z,4.10
2019-05-07T20:12:46.537Z,4.35
2019-05-07T20:15:16.780Z,3.83
2019-05-07T20:17:46.904Z,3.80
2019-05-07T20:20:17.548Z,3.72
2019-05-07T20:22:47.722Z,4.20
2019-05-07T20:25:19.256Z,4.05
2019-05-07T20:27:49.600Z,3.25
2019-05-07T20:30:19.727Z,4.50
2019-05-07T20:32:49.852Z,4.22
2019-05-07T20:35:19.969Z,4.40
2019-05-07T20:37:52.021Z,4.17
2019-05-07T20:40:22.670Z,4.12
2019-05-07T20:42:52.885Z,4.53
2019-05-07T20:45:23.892Z,4.12
2019-05-07T20:47:54.065Z,4.05
2019-05-07T20:50:24.182Z,4.03
2019-05-07T20:52:54.373Z,4.05
2019-05-07T20:55:30.609Z,4.28
2019-05-07T20:57:57.761Z,4.15
2019-05-07T21:00:28.948Z,3.50
2019-05-07T21:03:16.885Z,3.90
2019-05-07T21:05:48.200Z,3.70
2019-05-07T21:08:18.337Z,3.37
2019-05-07T21:10:48.772Z,3.40
2019-05-07T21:13:30.085Z,3.22
2019-05-07T21:15:52.629Z,3.17
2019-05-07T21:18:23.253Z,3.30
2019-05-07T21:20:53.850Z,3.45
2019-05-07T21:23:24.001Z,3.40
2019-05-07T21:25:54.157Z,3.42
2019-05-07T21:28:24.184Z,3.67
2019-05-07T21:30:54.595Z,3.27
2019-05-07T21:33:24.880Z,3.40
2019-05-07T21:35:54.862Z,3.45
2019-05-07T21:38:24.909Z,3.20
2019-05-07T21:40:55.348Z,3.40
2019-05-07T21:43:25.397Z,3.15
2019-05-07T21:45:55.382Z,3.00
2019-05-07T21:48:25.507Z,3.55
2019-05-07T21:50:55.932Z,2.80
2019-05-07T21:53:27.620Z,2.80
2019-05-07T21:56:05.133Z,3.75
2019-05-07T21:58:47.296Z,3.50
2019-05-07T22:01:22.206Z,3.45
2019-05-07T22:03:54.264Z,2.90
2019-05-07T22:06:24.532Z,2.90
2019-05-07T22:08:54.936Z,2.92
2019-05-07T22:11:25.195Z,2.70
2019-05-07T22:13:55.323Z,3.42
2019-05-07T22:16:25.387Z,3.30
2019-05-07T22:18:55.497Z,3.75
2019-05-07T22:21:25.924Z,3.67
2019-05-07T22:23:55.968Z,4.12
2019-05-07T22:26:26.679Z,3.47
2019-05-07T22:28:56.967Z,4.50
2019-05-07T22:31:31.332Z,3.83
2019-05-07T22:34:19.152Z,4.10
2019-05-07T22:36:49.453Z,5.17
2019-05-07T22:39:23.844Z,5.30
2019-05-07T22:41:55.492Z,5.50
2019-05-07T22:44:26.524Z,5.33
2019-05-07T22:46:58.349Z,5.72
2019-05-07T22:49:28.426Z,5.47
2019-05-07T22:51:58.481Z,5.22
2019-05-07T22:54:28.600Z,4.80
2019-05-07T22:57:06.209Z,4.58
2019-05-07T22:59:36.213Z,4.45
2019-05-07T23:02:06.848Z,5.53
2019-05-07T23:04:36.982Z,4.00
2019-05-07T23:07:07.566Z,5.22
2019-05-07T23:09:37.914Z,5.53
2019-05-07T23:12:07.977Z,5.00
2019-05-07T23:14:37.965Z,4.05
2019-05-07T23:17:08.012Z,5.30
2019-05-07T23:19:37.997Z,5.35
2019-05-07T23:22:07.978Z,4.45
2019-05-07T23:24:38.125Z,5.15
2019-05-07T23:27:08.153Z,5.05
2019-05-07T23:29:38.281Z,5.60
2019-05-07T23:32:08.388Z,5.55
2019-05-07T23:34:38.508Z,4.67
2019-05-07T23:37:08.566Z,5.10
2019-05-07T23:39:42.956Z,3.85
2019-05-07T23:42:14.644Z,4.85
2019-05-07T23:44:44.772Z,4.75
2019-05-07T23:47:14.893Z,4.83
2019-05-07T23:49:44.952Z,5.65
2019-05-07T23:52:15.030Z,5.50
2019-05-07T23:54:45.080Z,4.65
2019-05-07T23:57:15.524Z,5.53
2019-05-07T23:59:45.760Z,4.92
